createdAt,value
2022-11-14T00:00:31.155Z,15.13
2022-11-14T00:03:02.638Z,21.50
2022-11-14T00:05:32.272Z,26.10
2022-11-14T00:08:01.980Z,19.75
2022-11-14T00:10:31.250Z,17.27
2022-11-14T00:13:02.024Z,19.33
2022-11-14T00:15:31.423Z,21.80
2022-11-14T00:18:00.659Z,14.65
2022-11-14T00:20:29.990Z,17.08
2022-11-14T00:22:59.270Z,22.98
2022-11-14T00:25:28.837Z,18.02
2022-11-14T00:28:01.217Z,20.85
2022-11-14T00:30:30.707Z,20.73
2022-11-14T00:33:00.105Z,17.55
2022-11-14T00:35:29.572Z,20.90
2022-11-14T00:37:58.831Z,15.77
2022-11-14T00:40:28.112Z,21.23
2022-11-14T00:42:57.493Z,20.63
2022-11-14T00:45:28.363Z,17.15
2022-11-14T00:51:11.495Z,17.75
2022-11-14T00:53:41.213Z,18.63
2022-11-14T00:56:10.986Z,18.17
2022-11-14T00:58:41.531Z,15.25
2022-11-14T01:01:11.488Z,13.77
2022-11-14T01:03:40.925Z,17.08
2022-11-14T01:06:16.017Z,16.70
2022-11-14T01:08:45.844Z,12.40
2022-11-14T01:11:19.342Z,17.33
2022-11-14T01:13:48.735Z,15.55
2022-11-14T01:16:19.608Z,18.52
2022-11-14T01:18:49.129Z,12.85
2022-11-14T01:21:20.032Z,16.17
2022-11-14T01:23:49.381Z,14.95
2022-11-14T01:26:18.915Z,14.73
2022-11-14T01:28:48.206Z,17.60
2022-11-14T01:31:20.638Z,12.18
2022-11-14T01:33:54.811Z,16.35
2022-11-14T01:36:25.633Z,16.45
2022-11-14T01:38:56.006Z,12.93
2022-11-14T01:41:25.857Z,15.27
2022-11-14T01:43:55.235Z,14.23
2022-11-14T01:46:29.847Z,17.25
2022-11-14T01:49:07.190Z,13.65
2022-11-14T01:51:44.819Z,13.35
2022-11-14T01:54:20.063Z,14.38
2022-11-14T01:56:56.913Z,13.40
2022-11-14T01:59:34.108Z,13.88
2022-11-14T02:02:10.279Z,15.30
2022-11-14T02:04:44.768Z,17.80
2022-11-14T02:07:17.605Z,12.60
2022-11-14T02:12:20.218Z,22.13
2022-11-14T02:14:53.649Z,15.53
2022-11-14T02:17:29.555Z,14.30
2022-11-14T02:20:16.446Z,16.58
2022-11-14T02:22:45.856Z,16.25
2022-11-14T02:25:20.012Z,12.77
2022-11-14T02:27:49.522Z,13.95
2022-11-14T02:30:23.137Z,16.10
2022-11-14T02:35:43.768Z,13.88
2022-11-14T02:38:13.500Z,12.50
2022-11-14T02:40:42.730Z,11.30
2022-11-14T02:43:12.044Z,15.55
2022-11-14T02:45:41.348Z,13.85
2022-11-14T02:48:10.785Z,11.40
2022-11-14T02:50:41.578Z,13.88
2022-11-14T02:53:10.965Z,12.52
2022-11-14T02:55:40.296Z,14.65
2022-11-14T02:58:09.651Z,38.92
2022-11-14T03:00:59.262Z,12.85
2022-11-14T03:03:28.256Z,16.90
2022-11-14T03:06:02.702Z,10.70
2022-11-14T03:08:32.311Z,25.73
2022-11-14T03:11:07.471Z,12.52
2022-11-14T03:13:37.279Z,11.38
2022-11-14T03:16:12.639Z,10.77
2022-11-14T03:18:42.134Z,12.18
2022-11-14T03:21:15.860Z,11.80
2022-11-14T03:23:45.782Z,12.70
2022-11-14T03:26:17.010Z,22.13
2022-11-14T03:28:47.019Z,12.38
2022-11-14T03:31:17.257Z,12.77
2022-11-14T03:33:46.724Z,12.45
2022-11-14T03:36:17.588Z,10.43
2022-11-14T03:38:46.835Z,9.75
2022-11-14T03:41:16.200Z,8.68
2022-11-14T03:43:45.553Z,8.02
2022-11-14T03:46:15.024Z,11.05
2022-11-14T03:52:11.247Z,12.75
2022-11-14T03:54:40.730Z,18.10
2022-11-14T03:57:10.146Z,13.30
2022-11-14T03:59:39.504Z,15.25
2022-11-14T04:02:09.231Z,10.55
2022-11-14T04:04:38.534Z,11.52
2022-11-14T04:07:09.358Z,14.68
2022-11-14T04:09:38.905Z,14.70
2022-11-14T04:12:14.311Z,10.52
2022-11-14T04:14:45.002Z,15.05
2022-11-14T04:17:14.309Z,12.73
2022-11-14T04:19:43.650Z,29.95
2022-11-14T04:22:14.787Z,17.33
2022-11-14T04:24:44.116Z,20.40
2022-11-14T04:27:13.726Z,17.40
2022-11-14T04:29:43.049Z,22.00
2022-11-14T04:32:12.291Z,22.90
2022-11-14T04:34:41.707Z,16.15
2022-11-14T04:37:12.457Z,10.43
2022-11-14T04:39:41.787Z,13.23
2022-11-14T04:42:11.107Z,11.25
2022-11-14T04:44:40.436Z,9.90
2022-11-14T04:47:09.993Z,10.02
2022-11-14T04:49:39.383Z,9.50
2022-11-14T04:52:08.739Z,9.50
2022-11-14T04:54:39.447Z,12.60
2022-11-14T04:57:08.833Z,8.63
2022-11-14T04:59:38.169Z,12.25
2022-11-14T05:02:07.704Z,10.45
2022-11-14T05:04:37.353Z,9.15
2022-11-14T05:07:06.965Z,9.70
2022-11-14T05:09:38.025Z,8.25
2022-11-14T05:12:08.483Z,9.07
2022-11-14T05:14:37.787Z,12.35
2022-11-14T05:17:07.058Z,9.57
2022-11-14T05:19:36.384Z,12.00
2022-11-14T05:22:05.642Z,11.20
2022-11-14T05:24:35.017Z,12.40
2022-11-14T05:27:05.970Z,13.52
2022-11-14T05:29:35.372Z,12.52
2022-11-14T05:32:04.656Z,10.55
2022-11-14T05:34:34.029Z,12.70
2022-11-14T05:37:04.323Z,11.90
2022-11-14T05:39:33.761Z,14.20
2022-11-14T05:42:04.783Z,11.98
2022-11-14T05:44:34.363Z,12.80
2022-11-14T05:47:03.699Z,11.93
2022-11-14T05:49:32.996Z,15.65
2022-11-14T05:52:02.394Z,17.75
2022-11-14T05:54:31.732Z,11.88
2022-11-14T05:57:01.053Z,10.85
2022-11-14T05:59:32.034Z,11.05
2022-11-14T06:02:01.583Z,12.30
2022-11-14T06:04:30.983Z,11.50
2022-11-14T06:07:00.382Z,15.00
2022-11-14T06:09:29.933Z,12.38
2022-11-14T06:11:59.323Z,14.77
2022-11-14T06:14:28.835Z,17.45
2022-11-14T06:16:59.668Z,15.45
2022-11-14T06:19:29.082Z,16.30
2022-11-14T06:21:58.430Z,13.98
2022-11-14T06:24:27.842Z,14.60
2022-11-14T06:26:57.137Z,14.60
2022-11-14T06:29:30.129Z,12.23
2022-11-14T06:32:03.505Z,15.27
2022-11-14T06:34:32.858Z,17.40
2022-11-14T06:37:02.229Z,11.95
2022-11-14T06:39:31.535Z,13.15
2022-11-14T06:42:01.115Z,12.52
2022-11-14T06:44:31.302Z,12.10
2022-11-14T06:47:02.163Z,12.98
2022-11-14T06:52:11.151Z,11.68
2022-11-14T06:54:40.439Z,12.77
2022-11-14T06:57:09.660Z,13.02
2022-11-14T06:59:39.343Z,9.55
2022-11-14T07:02:13.142Z,13.38
2022-11-14T07:04:44.797Z,15.25
2022-11-14T07:07:15.520Z,14.95
2022-11-14T07:09:45.055Z,15.23
2022-11-14T07:12:14.406Z,18.63
2022-11-14T07:14:43.814Z,12.02
2022-11-14T07:17:13.141Z,15.13
2022-11-14T07:19:42.434Z,17.92
2022-11-14T07:22:13.356Z,19.65
2022-11-14T07:24:42.770Z,19.75
2022-11-14T07:27:12.409Z,16.08
2022-11-14T07:29:41.686Z,20.58
2022-11-14T07:32:11.260Z,18.33
2022-11-14T07:34:40.669Z,19.00
2022-11-14T07:37:10.123Z,19.92
2022-11-14T07:39:40.777Z,18.75
2022-11-14T07:42:10.101Z,16.98
2022-11-14T07:44:39.401Z,16.35
2022-11-14T07:47:08.726Z,17.55
2022-11-14T07:49:38.129Z,14.98
2022-11-14T07:52:07.797Z,14.73
2022-11-14T07:54:37.123Z,16.65
2022-11-14T07:57:07.927Z,16.02
2022-11-14T07:59:37.334Z,14.73
2022-11-14T08:02:06.768Z,14.02
2022-11-14T08:04:36.208Z,16.17
2022-11-14T08:07:05.603Z,14.48
2022-11-14T08:09:35.073Z,13.85
2022-11-14T08:12:04.523Z,12.02
2022-11-14T08:14:35.549Z,13.55
2022-11-14T08:17:04.975Z,13.98
2022-11-14T08:19:34.315Z,12.43
2022-11-14T08:22:03.615Z,13.80
2022-11-14T08:24:32.872Z,12.27
2022-11-14T08:27:02.431Z,12.95
2022-11-14T08:29:31.907Z,13.30
2022-11-14T08:32:02.656Z,13.40
2022-11-14T08:34:32.032Z,12.45
2022-11-14T08:37:02.623Z,12.02
2022-11-14T08:39:32.003Z,11.65
2022-11-14T08:42:01.412Z,12.77
2022-11-14T08:44:30.838Z,12.45
2022-11-14T08:47:02.404Z,11.10
2022-11-14T08:49:32.072Z,12.18
2022-11-14T08:52:01.412Z,12.30
2022-11-14T08:54:31.453Z,11.20
2022-11-14T08:57:00.876Z,11.80
2022-11-14T08:59:30.482Z,13.68
2022-11-14T09:02:02.115Z,11.00
2022-11-14T09:04:32.000Z,10.88
2022-11-14T09:07:01.544Z,10.88
2022-11-14T09:09:30.987Z,11.45
2022-11-14T09:12:00.349Z,12.05
2022-11-14T09:14:29.711Z,11.45
2022-11-14T09:17:04.558Z,13.05
2022-11-14T09:19:36.719Z,13.68
2022-11-14T09:22:06.156Z,12.18
2022-11-14T09:24:35.594Z,12.55
2022-11-14T09:27:05.312Z,12.02
2022-11-14T09:29:34.829Z,11.70
2022-11-14T09:32:04.247Z,11.18
2022-11-14T09:34:33.747Z,11.43
2022-11-14T09:37:04.693Z,11.57
2022-11-14T09:39:38.203Z,12.55
2022-11-14T09:42:29.688Z,16.70
2022-11-14T09:45:02.542Z,13.25
2022-11-14T09:47:37.117Z,13.00
2022-11-14T09:52:30.851Z,13.98
2022-11-14T09:55:04.858Z,13.90
2022-11-14T09:57:34.432Z,13.05
2022-11-14T10:00:04.952Z,11.88
2022-11-14T10:02:45.009Z,16.98
2022-11-14T10:05:34.160Z,11.82
2022-11-14T10:08:28.163Z,12.55
2022-11-14T10:11:01.137Z,14.93
2022-11-14T10:14:26.782Z,14.43
2022-11-14T10:17:10.901Z,13.43
2022-11-14T10:19:48.975Z,14.85
2022-11-14T10:22:44.388Z,16.25
2022-11-14T10:25:26.036Z,14.82
2022-11-14T10:28:17.369Z,17.95
2022-11-14T10:30:58.017Z,15.93
2022-11-14T10:33:44.473Z,15.27
2022-11-14T10:36:22.770Z,15.25
2022-11-14T10:39:01.893Z,16.67
2022-11-14T10:41:55.643Z,15.25
2022-11-14T10:44:30.939Z,15.73
2022-11-14T10:47:07.648Z,14.98
2022-11-14T10:49:39.532Z,15.60
2022-11-14T10:52:16.192Z,15.15
2022-11-14T11:30:20.674Z,15.50
2022-11-14T11:32:49.957Z,15.95
2022-11-14T11:35:20.164Z,15.13
2022-11-14T11:37:55.437Z,15.73
2022-11-14T11:40:28.988Z,16.77
2022-11-14T11:45:57.202Z,16.65
2022-11-14T11:48:36.289Z,16.60
2022-11-14T11:51:06.945Z,19.13
2022-11-14T11:53:43.652Z,16.88
2022-11-14T11:56:17.753Z,18.38
2022-11-14T11:58:51.470Z,16.90
2022-11-14T12:01:22.335Z,17.23
2022-11-14T12:03:54.769Z,17.65
2022-11-14T12:06:27.455Z,16.58
2022-11-14T12:11:40.754Z,16.98
2022-11-14T12:14:48.634Z,15.38
2022-11-14T12:18:11.505Z,15.98
2022-11-14T12:21:09.476Z,16.57
2022-11-14T12:24:24.199Z,14.63
2022-11-14T12:27:13.809Z,14.77
2022-11-14T12:30:04.875Z,17.13
2022-11-14T12:32:41.109Z,16.17
2022-11-14T12:35:22.348Z,16.98
2022-11-14T12:37:56.227Z,17.65
2022-11-14T12:40:30.663Z,32.33
2022-11-14T12:43:01.448Z,23.35
2022-11-14T12:46:02.922Z,19.63
2022-11-14T12:52:45.932Z,17.27
2022-11-14T12:56:01.624Z,17.85
2022-11-14T12:59:23.453Z,18.35
2022-11-14T13:02:23.628Z,23.65
2022-11-14T13:05:17.292Z,18.00
2022-11-14T13:08:02.991Z,19.65
2022-11-14T13:10:36.105Z,18.65
2022-11-14T13:13:27.822Z,18.80
2022-11-14T13:16:16.646Z,20.42
2022-11-14T13:19:15.769Z,19.05
2022-11-14T13:22:20.511Z,19.92
2022-11-14T13:25:21.012Z,21.73
2022-11-14T13:28:09.945Z,23.20
2022-11-14T13:31:09.245Z,21.75
2022-11-14T13:33:46.819Z,21.40
2022-11-14T13:36:31.977Z,21.85
2022-11-14T13:39:21.756Z,22.85
2022-11-14T13:42:29.731Z,21.10
2022-11-14T13:45:48.305Z,20.38
2022-11-14T13:49:08.891Z,23.48
2022-11-14T13:51:43.928Z,19.63
2022-11-14T13:54:18.036Z,18.77
2022-11-14T13:57:02.118Z,21.58
2022-11-14T13:59:51.850Z,19.83
2022-11-14T14:02:53.385Z,20.45
2022-11-14T14:05:39.078Z,22.10
2022-11-14T14:08:25.323Z,20.08
2022-11-14T14:11:26.151Z,19.60
2022-11-14T14:14:07.576Z,17.58
2022-11-14T14:16:50.169Z,21.30
2022-11-14T14:19:34.049Z,19.55
2022-11-14T14:22:11.862Z,22.70
2022-11-14T14:24:57.075Z,20.65
2022-11-14T14:27:36.282Z,20.40
2022-11-14T14:30:12.204Z,20.48
2022-11-14T14:32:43.223Z,20.65
2022-11-14T14:35:27.563Z,19.08
2022-11-14T14:37:58.484Z,19.52
2022-11-14T14:40:33.638Z,21.08
2022-11-14T14:43:05.121Z,19.00
2022-11-14T14:45:47.354Z,19.23
2022-11-14T14:48:25.766Z,18.73
2022-11-14T14:50:56.969Z,22.30
2022-11-14T14:53:28.690Z,20.05
2022-11-14T14:56:00.494Z,20.52
2022-11-14T14:58:33.239Z,19.83
2022-11-14T15:01:06.442Z,25.00
2022-11-14T15:03:41.463Z,22.83
2022-11-14T15:06:33.547Z,24.83
2022-11-14T15:09:11.268Z,22.33
2022-11-14T15:11:45.739Z,22.02
2022-11-14T15:14:19.390Z,24.23
2022-11-14T15:16:51.335Z,21.80
2022-11-14T15:19:26.134Z,24.70
2022-11-14T15:22:07.377Z,25.08
2022-11-14T15:24:36.646Z,24.05
2022-11-14T15:27:07.591Z,25.60
2022-11-14T15:29:38.574Z,32.78
2022-11-14T15:32:08.077Z,35.63
2022-11-14T15:34:40.746Z,31.27
2022-11-14T15:37:23.259Z,36.72
2022-11-14T15:39:52.871Z,37.67
2022-11-14T15:42:29.771Z,43.83
2022-11-14T15:44:59.395Z,30.45
2022-11-14T15:47:31.168Z,30.00
2022-11-14T15:52:23.454Z,41.20
2022-11-14T15:54:52.947Z,36.35
2022-11-14T15:57:22.246Z,34.17
2022-11-14T15:59:51.688Z,27.65
2022-11-14T16:02:24.676Z,28.83
2022-11-14T16:04:56.022Z,24.60
2022-11-14T16:07:28.219Z,22.52
2022-11-14T16:09:57.744Z,26.52
2022-11-14T16:12:27.000Z,29.67
2022-11-14T16:14:56.354Z,25.98
2022-11-14T16:17:25.709Z,20.52
2022-11-14T16:19:54.975Z,22.77
2022-11-14T16:22:25.697Z,21.77
2022-11-14T16:24:55.537Z,27.00
2022-11-14T16:27:24.887Z,27.15
2022-11-14T16:29:54.238Z,23.55
2022-11-14T16:32:26.910Z,27.20
2022-11-14T16:34:56.389Z,22.10
2022-11-14T16:37:27.068Z,29.10
2022-11-14T16:39:56.675Z,26.17
2022-11-14T16:42:26.076Z,25.05
2022-11-14T16:45:00.884Z,19.83
2022-11-14T16:47:32.167Z,19.60
2022-11-14T16:50:01.809Z,21.27
2022-11-14T16:52:32.646Z,20.75
2022-11-14T16:55:02.131Z,22.83
2022-11-14T16:57:31.518Z,25.20
2022-11-14T17:00:01.173Z,36.35
2022-11-14T17:02:30.528Z,26.83
2022-11-14T17:04:59.964Z,25.17
2022-11-14T17:07:33.603Z,37.60
2022-11-14T17:10:04.244Z,34.60
2022-11-14T17:12:34.837Z,28.85
2022-11-14T17:15:04.138Z,29.38
2022-11-14T17:17:33.751Z,27.35
2022-11-14T17:20:03.168Z,31.85
2022-11-14T17:22:34.115Z,44.97
2022-11-14T17:25:03.582Z,27.42
2022-11-14T17:27:32.877Z,48.80
2022-11-14T17:30:02.388Z,40.92
2022-11-14T17:32:32.467Z,53.63
2022-11-14T17:35:01.786Z,58.10
2022-11-14T17:37:32.632Z,46.38
2022-11-14T17:42:49.005Z,53.72
2022-11-14T17:45:18.398Z,53.92
2022-11-14T17:47:47.726Z,46.08
2022-11-14T17:50:17.930Z,41.60
2022-11-14T17:52:48.847Z,29.02
2022-11-14T17:55:18.467Z,38.15
2022-11-14T17:57:47.747Z,46.08
2022-11-14T18:00:19.318Z,46.97
2022-11-14T18:02:48.548Z,47.90
2022-11-14T18:05:18.390Z,41.75
2022-11-14T18:07:49.857Z,41.35
2022-11-14T18:10:20.227Z,121.45
2022-11-14T18:12:49.568Z,278.90
2022-11-14T18:15:21.628Z,139.93
2022-11-14T18:17:54.509Z,59.05
2022-11-14T18:20:23.832Z,54.88
2022-11-14T18:22:55.049Z,60.00
2022-11-14T18:25:24.573Z,41.67
2022-11-14T18:27:53.772Z,58.22
2022-11-14T18:33:12.622Z,40.28
2022-11-14T18:35:42.020Z,49.97
2022-11-14T18:38:13.212Z,107.45
2022-11-14T18:40:45.589Z,77.68
2022-11-14T18:43:14.989Z,68.28
2022-11-14T18:45:44.433Z,51.97
2022-11-14T18:48:14.133Z,54.60
2022-11-14T18:52:16.879Z,43.95
2022-11-14T18:54:47.076Z,43.20
2022-11-14T18:57:16.470Z,37.15
2022-11-14T18:59:45.932Z,36.13
2022-11-14T19:02:15.429Z,36.95
2022-11-14T19:04:45.064Z,32.25
2022-11-14T19:07:15.847Z,38.92
2022-11-14T19:09:45.636Z,38.28
2022-11-14T19:12:22.177Z,35.15
2022-11-14T19:14:53.185Z,35.80
2022-11-14T19:17:22.785Z,40.58
2022-11-14T19:19:53.875Z,38.88
2022-11-14T19:22:25.120Z,32.63
2022-11-14T19:24:54.667Z,32.28
2022-11-14T19:27:23.995Z,31.63
2022-11-14T19:29:53.377Z,35.03
2022-11-14T19:32:22.709Z,31.48
2022-11-14T19:34:52.023Z,33.50
2022-11-14T19:37:21.362Z,37.33
2022-11-14T19:39:55.620Z,33.17
2022-11-14T19:42:25.124Z,31.70
2022-11-14T19:44:54.457Z,102.00
2022-11-14T19:47:23.753Z,42.17
2022-11-14T19:49:53.052Z,39.58
2022-11-14T19:52:22.385Z,46.58
2022-11-14T19:54:53.214Z,51.30
2022-11-14T19:57:22.683Z,42.00
2022-11-14T19:59:52.603Z,42.42
2022-11-14T20:02:22.056Z,45.20
2022-11-14T20:04:51.558Z,73.57
2022-11-14T20:07:21.023Z,76.28
2022-11-14T20:09:51.825Z,85.93
2022-11-14T20:12:21.127Z,68.72
2022-11-14T20:14:50.566Z,132.18
2022-11-14T20:17:19.912Z,49.90
2022-11-14T20:19:49.307Z,74.75
2022-11-14T20:22:18.553Z,56.72
2022-11-14T20:24:48.028Z,77.00
2022-11-14T20:27:18.761Z,45.42
2022-11-14T20:29:48.102Z,52.05
2022-11-14T20:32:17.470Z,37.15
2022-11-14T20:34:46.901Z,52.38
2022-11-14T20:37:16.373Z,31.48
2022-11-14T20:39:45.690Z,26.60
2022-11-14T20:42:15.047Z,31.20
2022-11-14T20:44:45.790Z,32.65
2022-11-14T20:47:15.251Z,27.50
2022-11-14T20:49:45.384Z,26.75
2022-11-14T20:52:15.353Z,31.55
2022-11-14T20:54:44.773Z,30.98
2022-11-14T20:57:14.340Z,37.20
2022-11-14T20:59:45.203Z,34.25
2022-11-14T21:02:15.158Z,34.00
2022-11-14T21:04:44.515Z,29.17
2022-11-14T21:07:13.928Z,31.88
2022-11-14T21:09:44.652Z,28.25
2022-11-14T21:12:14.121Z,31.90
2022-11-14T21:14:44.955Z,26.75
2022-11-14T21:17:14.311Z,26.77
2022-11-14T21:19:43.632Z,31.17
2022-11-14T21:22:13.578Z,27.23
2022-11-14T21:24:42.935Z,26.50
2022-11-14T21:27:13.273Z,29.48
2022-11-14T21:29:42.611Z,28.75
2022-11-14T21:32:13.493Z,36.40
2022-11-14T21:34:42.840Z,27.77
2022-11-14T21:37:12.269Z,31.17
2022-11-14T21:39:41.493Z,37.95
2022-11-14T21:42:14.277Z,47.63
2022-11-14T21:44:47.738Z,60.65
2022-11-14T21:47:18.593Z,66.43
2022-11-14T21:52:10.777Z,69.43
2022-11-14T21:54:40.199Z,66.00
2022-11-14T21:57:10.461Z,69.18
2022-11-14T21:59:40.028Z,115.80
2022-11-14T22:02:33.264Z,114.35
2022-11-14T22:07:33.201Z,91.32
2022-11-14T22:10:02.773Z,159.95
2022-11-14T22:12:35.406Z,110.38
2022-11-14T22:15:05.174Z,84.82
2022-11-14T22:17:34.615Z,69.03
2022-11-14T22:20:04.072Z,63.88
2022-11-14T22:22:34.725Z,68.28
2022-11-14T22:25:04.386Z,65.75
2022-11-14T22:27:33.717Z,53.72
2022-11-14T22:30:02.989Z,63.95
2022-11-14T22:32:32.347Z,53.45
2022-11-14T22:35:01.772Z,150.20
2022-11-14T22:37:31.049Z,175.00
2022-11-14T22:40:01.727Z,99.78
2022-11-14T22:42:31.234Z,69.40
2022-11-14T22:45:00.834Z,55.90
2022-11-14T22:47:30.568Z,48.45
2022-11-14T22:49:59.910Z,52.33
2022-11-14T22:52:30.569Z,44.45
2022-11-14T22:55:01.413Z,40.10
2022-11-14T22:57:30.902Z,38.72
2022-11-14T23:00:00.321Z,44.20
2022-11-14T23:02:29.775Z,48.60
2022-11-14T23:04:59.083Z,39.33
2022-11-14T23:07:28.531Z,38.47
2022-11-14T23:09:57.933Z,34.90
2022-11-14T23:12:28.638Z,48.28
2022-11-14T23:14:57.986Z,47.35
2022-11-14T23:17:27.374Z,37.80
2022-11-14T23:19:56.717Z,40.10
2022-11-14T23:22:26.034Z,44.72
2022-11-14T23:24:55.426Z,48.00
2022-11-14T23:27:24.740Z,48.05
2022-11-14T23:29:55.428Z,53.47
2022-11-14T23:32:24.774Z,51.33
2022-11-14T23:34:54.264Z,63.80
2022-11-14T23:37:23.616Z,67.55
2022-11-14T23:39:52.983Z,70.35
2022-11-14T23:42:22.264Z,80.95
2022-11-14T23:44:51.637Z,75.55
2022-11-14T23:47:22.614Z,59.95
2022-11-14T23:49:52.134Z,66.18
2022-11-14T23:52:21.554Z,58.97
2022-11-14T23:54:50.932Z,53.55
2022-11-14T23:57:20.300Z,66.25
2022-11-14T23:59:50.913Z,53.35
